Ayers, Illinois
Current Conditions -  °F | °C
As of 3:35 AM on Sunday 21 Dec 2014 (Local Time) from K3LF Reporting Station
Overcast Overcast  
Wind Chill: 28°   Ceiling: 2500
Heat Index: 35°   Visibility: 10mi
Dew Point: 30°   Wind: 9mph
Humidity: 82%   Direction: 150°SSE
Pressure: 30.21"   Gusts: NA
Location:  38.895°N, 89.397°W
Report Text: K3LF 210935Z AUTO 15008KT 10SM OVC025 02/M01 A3021 RMK AO2 T00181010
Loading
Personal Weather Stations






























Interactive Weather Map New forecast layout! Learn more

10-Day Weather Forecast

Advertisements
Track Severe Weather on mobile